Decatur, Michigan
Current Conditions -  °F | °C
As of 1:54 AM on Sunday 26 Oct 2014 (Local Time) from KHAI Reporting Station
Clear Clear  
Wind Chill: 52°   Ceiling: Unl
Heat Index: 52°   Visibility: 10mi
Dew Point: 34°   Wind: 6mph
Humidity: 50%   Direction: 300°WNW
Pressure: 29.91"   Gusts: NA
Location:  42.11°N, 85.97°W
Report Text: KHAI 260554Z AUTO 30005KT 10SM CLR 11/01 A2991 RMK AO2 T01090009
Loading
Personal Weather Stations






























Interactive Weather Map
Tropical Storm Tracking
New forecast layout! Learn more

10-Day Weather Forecast

Advertisements
Track Severe Weather on mobile